Derma, MS (38839)

11:30 AM CST on December 27, 2014 (GMT -0600)
Bruce, Ms | Change Station
CLOSE
Current Station
Personal Weather Station
Location: Bruce, MS
Elevation: 279 ft
Nearby Weather Stations
Active Advisory: Flash Flood Watch

Elev 279 ft 33.99 °N, 89.34 °W | Updated 28 seconds ago

Overcast
Overcast
54.3 °F
Feels Like 54.3 °F
N
3.6
Wind Variable Wind from SSE
Gusts 4.9 mph

Today
High -- | Low -- °F
--% Chance of Precip.
Yesterday
High -- | Low -- °F
Precip. -- in
7:01 AM 4:55 PM
Waxing Crescent, 38% visible
Pressure 30.18 in
Visibility 1.0 miles
Clouds Overcast 400 ft
Dew Point 52 °F
Humidity 91%
Rainfall 0.13 in
Snow Depth Not available.
UV 1.0 out of 12
Pollen .30 out of 12
Air Quality Not available.
Flu Activity Not available.
METAR KUOX 271715Z AUTO 00000KT 1SM BR OVC004 10/10 A3018 RMK AO2 PWINO PNO

More Conditions Fewer Conditions

Pressure 30.18 in
Visibility 1.0 miles
Clouds Overcast 400 ft
Dew Point 52 °F
Humidity 91%
Rainfall 0.13 in
Snow Depth Not available.
UV 1.0 out of 12
Pollen .30 out of 12
Air Quality Not available.
Flu Activity Not available.
METAR KUOX 271715Z AUTO 00000KT 1SM BR OVC004 10/10 A3018 RMK AO2 PWINO PNO

More Conditions Fewer Conditions

10-Day Weather Forecast

Almanac

Astronomy

Dec. 27, 2014 Rise Set
Actual Time
Civil Twilight
Nautical Twilight
Astronomical Twilight
Moon
Length of Visible Light
Length of Day
Tomorrow will be .
, % of the Moon is Illuminated

Today's Extremes

State Highs State Lows

Community

WunderPhotos

Upload Photos

1,780,972 photos uploaded!

WunderBlogs® & News

Nearby

Air Quality

  Air Quality AQ Index Pollutant
Not available.

Snow Depth

Station Depth Elevation

Earthquake Activity

City Distance Mag. Time & Date
Minimum magnitude displayed is 2.5.

Coastal Water Temperatures

Place Temperature

Nearby Weather Stations